Time;durP1;ratioP1;P1;durP2;ratioP2;P2;SDS_P1;SDS_P2;PMS_P1;PMS_P2;Temp;Humidity;BMP_temperature;BMP_pressure;BME280_temperature;BME280_humidity;BME280_pressure;Samples;Min_cycle;Max_cycle;Signal;HPM_P1;HPM_P2
2021/01/02 00:02:38;;;;;;;35.70;18.47;;;;;;;0.97;100.00;95587.75;5098494;28;20487;-80
2021/01/02 00:05:09;;;;;;;32.50;18.43;;;;;;;0.93;100.00;95587.34;5098522;28;20428;-80
2021/01/02 00:07:57;;;;;;;31.97;18.77;;;;;;;0.93;100.00;95592.66;5098010;28;20438;-80
2021/01/02 00:10:28;;;;;;;30.53;17.97;;;;;;;0.87;100.00;95589.31;5099439;28;20508;-81
2021/01/02 00:13:14;;;;;;;31.43;16.47;;;;;;;0.96;100.00;95596.25;5100316;28;20448;-81
2021/01/02 00:16:06;;;;;;;32.90;18.23;;;;;;;0.98;100.00;95589.22;5100316;28;20851;-82
2021/01/02 00:18:48;;;;;;;36.03;18.50;;;;;;;1.08;100.00;95586.97;5099675;28;20469;-82
2021/01/02 00:21:18;;;;;;;30.97;18.40;;;;;;;1.01;100.00;95585.56;5099743;28;20430;-82
2021/01/02 00:24:17;;;;;;;30.47;17.90;;;;;;;1.15;100.00;95588.38;5100403;28;20437;-81
2021/01/02 00:26:46;;;;;;;31.07;18.50;;;;;;;1.02;100.00;95583.63;5098049;28;20451;-80
2021/01/02 00:29:19;;;;;;;32.27;18.50;;;;;;;0.97;100.00;95585.09;5097926;28;20437;-79
2021/01/02 00:32:12;;;;;;;34.47;18.83;;;;;;;0.97;100.00;95585.09;5097894;28;20465;-79
2021/01/02 00:34:54;;;;;;;31.93;17.43;;;;;;;1.02;100.00;95587.03;5099705;28;20909;-81
2021/01/02 00:37:30;;;;;;;30.20;17.93;;;;;;;0.95;100.00;95584.91;5099993;28;20421;-80
2021/01/02 00:40:05;;;;;;;28.30;16.43;;;;;;;0.98;100.00;95583.19;5098727;28;20428;-82
2021/01/02 00:42:33;;;;;;;34.03;18.70;;;;;;;0.91;100.00;95589.75;5099654;28;20601;-82
2021/01/02 00:45:00;;;;;;;29.60;16.67;;;;;;;0.87;100.00;95586.66;5099812;28;21009;-82
2021/01/02 00:47:28;;;;;;;34.53;18.70;;;;;;;0.98;100.00;95586.56;5099371;28;20433;-82
2021/01/02 00:49:55;;;;;;;30.80;17.10;;;;;;;0.99;100.00;95584.63;5099309;28;20441;-82
2021/01/02 00:52:43;;;;;;;27.97;16.73;;;;;;;0.99;100.00;95584.63;5097924;28;20514;-80
2021/01/02 00:55:23;;;;;;;37.80;19.67;;;;;;;0.98;100.00;95581.25;5098771;28;20425;-83
2021/01/02 00:58:05;;;;;;;30.07;17.40;;;;;;;0.93;100.00;95581.31;5098513;28;20496;-82
2021/01/02 01:00:34;;;;;;;32.80;20.00;;;;;;;0.88;100.00;95585.44;5099464;28;20759;-82
2021/01/02 01:03:05;;;;;;;39.00;20.57;;;;;;;0.88;100.00;95582.03;5098720;28;20461;-82
2021/01/02 01:05:36;;;;;;;31.47;18.27;;;;;;;0.93;100.00;95587.34;5099398;28;20429;-82
2021/01/02 01:08:04;;;;;;;32.30;18.40;;;;;;;0.98;100.00;95599.13;5098768;28;20441;-83
2021/01/02 01:10:32;;;;;;;27.80;16.53;;;;;;;1.05;100.00;95593.28;5099522;28;20441;-81
2021/01/02 01:13:03;;;;;;;29.90;19.60;;;;;;;1.16;100.00;95598.47;5099849;28;20490;-81
2021/01/02 01:15:29;;;;;;;33.40;18.00;;;;;;;1.11;100.00;95593.22;5100817;28;20412;-79
2021/01/02 01:18:17;;;;;;;31.00;16.77;;;;;;;1.18;100.00;95598.00;5098234;28;20484;-82
2021/01/02 01:20:45;;;;;;;26.90;16.63;;;;;;;1.18;100.00;95605.97;5098024;28;20463;-79
2021/01/02 01:23:26;;;;;;;31.50;16.50;;;;;;;1.33;100.00;95611.63;5084103;28;20550;-79
2021/01/02 01:26:09;;;;;;;28.63;17.50;;;;;;;1.31;100.00;95611.41;5076450;28;20932;-83
2021/01/02 01:28:39;;;;;;;27.30;14.17;;;;;;;1.33;100.00;95611.63;5077800;28;21040;-80
2021/01/02 01:31:06;;;;;;;24.40;14.13;;;;;;;1.44;100.00;95611.53;5078200;28;20549;-81
2021/01/02 01:33:39;;;;;;;27.97;15.63;;;;;;;1.37;100.00;95612.81;5079094;28;20544;-81
2021/01/02 01:36:07;;;;;;;25.67;15.17;;;;;;;1.44;100.00;95609.59;5080332;28;20414;-81
2021/01/02 01:38:34;;;;;;;28.67;16.70;;;;;;;1.26;100.00;95609.50;5078017;28;20477;-79
2021/01/02 01:41:11;;;;;;;31.67;18.30;;;;;;;1.31;100.00;95614.78;5076495;28;20449;-79
2021/01/02 01:44:13;;;;;;;26.83;14.50;;;;;;;1.45;100.00;95621.66;5077901;28;20425;-83
2021/01/02 01:46:52;;;;;;;24.27;14.70;;;;;;;1.21;100.00;95620.91;5077101;28;20461;-81
2021/01/02 01:49:48;;;;;;;23.63;13.97;;;;;;;1.24;100.00;95620.66;5078517;28;20444;-80
2021/01/02 01:52:31;;;;;;;30.13;15.17;;;;;;;1.24;100.00;95625.22;5064204;28;20465;-79
2021/01/02 01:55:06;;;;;;;24.40;13.37;;;;;;;1.24;100.00;95614.59;5076564;28;20441;-79
2021/01/02 01:57:37;;;;;;;25.17;14.40;;;;;;;0.99;100.00;95621.81;5075781;28;20516;-79
2021/01/02 02:00:12;;;;;;;30.73;16.33;;;;;;;1.13;100.00;95623.38;5075341;28;20434;-79
2021/01/02 02:03:02;;;;;;;32.13;16.23;;;;;;;1.24;100.00;95617.25;5075682;28;20821;-79
2021/01/02 02:05:49;;;;;;;31.07;17.93;;;;;;;1.04;100.00;95607.75;5076162;28;20825;-79
2021/01/02 02:08:16;;;;;;;27.77;15.90;;;;;;;1.04;100.00;95607.75;5075706;28;20422;-82
2021/01/02 02:10:45;;;;;;;30.13;16.87;;;;;;;0.98;100.00;95607.06;5077152;28;20433;-83
2021/01/02 02:13:14;;;;;;;30.47;16.23;;;;;;;0.89;100.00;95610.78;5077569;28;20461;-83
2021/01/02 02:15:48;;;;;;;28.13;16.73;;;;;;;0.89;100.00;95607.38;5076490;28;20445;-79
2021/01/02 02:18:21;;;;;;;30.03;16.33;;;;;;;0.92;100.00;95603.75;5076110;28;20461;-80
2021/01/02 02:20:50;;;;;;;34.93;18.10;;;;;;;0.96;100.00;95612.91;5076363;28;20833;-80
2021/01/02 02:23:23;;;;;;;32.00;19.03;;;;;;;0.98;100.00;95607.81;5077019;28;20962;-81
2021/01/02 02:26:04;;;;;;;27.97;16.27;;;;;;;0.97;100.00;95610.97;5076783;28;20891;-80
2021/01/02 02:29:08;;;;;;;26.03;17.00;;;;;;;0.93;100.00;95611.22;5075600;28;20566;-80
2021/01/02 02:31:40;;;;;;;27.00;16.83;;;;;;;0.94;100.00;95609.31;5075484;28;20820;-83
2021/01/02 02:34:08;;;;;;;30.50;16.10;;;;;;;0.90;100.00;95609.56;5075258;28;20421;-83
2021/01/02 02:36:35;;;;;;;29.30;14.67;;;;;;;0.91;100.00;95610.25;5075636;28;20441;-81
2021/01/02 02:39:06;;;;;;;26.40;15.30;;;;;;;0.95;100.00;95621.34;5075467;28;20481;-81
2021/01/02 02:41:36;;;;;;;25.67;15.60;;;;;;;0.92;100.00;95612.44;5076851;28;20469;-80
2021/01/02 02:44:04;;;;;;;26.47;15.83;;;;;;;1.02;100.00;95616.22;5085199;28;20421;-77
2021/01/02 02:46:37;;;;;;;34.67;18.43;;;;;;;0.96;100.00;95618.22;5113447;28;20448;-78
2021/01/02 02:49:08;;;;;;;24.90;15.03;;;;;;;0.96;100.00;95614.84;5118612;28;20413;-78
2021/01/02 02:51:42;;;;;;;28.17;16.43;;;;;;;1.00;100.00;95617.94;5118609;28;20444;-83
2021/01/02 02:54:09;;;;;;;30.70;16.30;;;;;;;0.85;100.00;95618.28;5114941;28;20420;-79
2021/01/02 02:56:35;;;;;;;31.30;16.90;;;;;;;0.81;100.00;95617.84;5094699;28;20523;-79
2021/01/02 02:59:03;;;;;;;33.50;17.17;;;;;;;0.79;100.00;95622.91;5093216;28;20475;-79
2021/01/02 03:01:31;;;;;;;31.90;17.43;;;;;;;0.84;100.00;95616.13;5094628;28;20551;-82
2021/01/02 03:03:58;;;;;;;31.33;18.53;;;;;;;0.85;100.00;95612.25;5094973;28;20448;-82
2021/01/02 03:06:30;;;;;;;38.93;19.60;;;;;;;0.87;100.00;95615.13;5094642;28;20480;-80
2021/01/02 03:08:58;;;;;;;38.47;21.60;;;;;;;0.79;100.00;95620.25;5094942;28;20516;-80
2021/01/02 03:11:26;;;;;;;37.27;20.50;;;;;;;0.77;100.00;95617.38;5095574;28;20529;-82
2021/01/02 03:13:52;;;;;;;37.80;19.27;;;;;;;0.77;100.00;95617.38;5096097;28;20983;-82
2021/01/02 03:16:19;;;;;;;39.17;20.60;;;;;;;0.89;100.00;95626.69;5096107;28;20440;-78
2021/01/02 03:18:46;;;;;;;34.50;20.60;;;;;;;0.85;100.00;95620.94;5095147;28;20511;-79
2021/01/02 03:21:12;;;;;;;41.37;20.37;;;;;;;0.74;100.00;95617.63;5096877;28;20455;-79
2021/01/02 03:23:46;;;;;;;43.03;21.90;;;;;;;1.01;100.00;95614.06;5097171;28;20444;-79
2021/01/02 03:26:12;;;;;;;31.77;18.27;;;;;;;0.92;100.00;95611.72;5097474;28;20424;-79
2021/01/02 03:28:39;;;;;;;31.40;18.40;;;;;;;0.84;100.00;95608.88;5096855;28;20543;-79
2021/01/02 03:31:05;;;;;;;33.20;20.10;;;;;;;0.81;100.00;95609.88;5098645;28;20425;-80
2021/01/02 03:33:32;;;;;;;36.33;18.87;;;;;;;0.90;100.00;95611.50;5099590;28;20531;-80
2021/01/02 03:35:59;;;;;;;35.87;20.50;;;;;;;0.88;100.00;95608.59;5097566;28;20448;-79
2021/01/02 03:38:26;;;;;;;34.23;21.00;;;;;;;0.83;100.00;95606.72;5098285;28;20484;-79
2021/01/02 03:40:54;;;;;;;32.87;19.87;;;;;;;0.68;100.00;95603.69;5098297;28;20444;-78
2021/01/02 03:43:20;;;;;;;36.40;19.80;;;;;;;0.60;100.00;95598.16;5097093;28;20461;-79
2021/01/02 03:45:46;;;;;;;35.93;19.90;;;;;;;0.64;100.00;95598.63;5097617;28;20935;-78
2021/01/02 03:48:13;;;;;;;36.57;19.03;;;;;;;0.78;100.00;95599.50;5098230;28;20436;-78
2021/01/02 03:50:39;;;;;;;37.60;19.93;;;;;;;0.72;100.00;95596.88;5093855;28;20457;-80
2021/01/02 03:53:05;;;;;;;34.00;18.87;;;;;;;0.69;100.00;95592.56;5079107;28;20468;-78
2021/01/02 03:55:32;;;;;;;35.77;20.53;;;;;;;0.69;100.00;95595.22;5077995;28;20457;-79
2021/01/02 03:57:59;;;;;;;35.47;20.33;;;;;;;0.66;100.00;95590.88;5076137;28;20445;-79
2021/01/02 04:00:26;;;;;;;33.50;19.50;;;;;;;0.56;100.00;95589.03;5077472;28;20853;-80
2021/01/02 04:02:53;;;;;;;28.13;17.17;;;;;;;0.49;100.00;95587.63;5079395;28;20982;-80
2021/01/02 04:05:19;;;;;;;34.03;19.33;;;;;;;0.62;100.00;95593.09;5079713;28;20453;-80
2021/01/02 04:07:45;;;;;;;32.50;18.27;;;;;;;0.57;100.00;95593.13;5079684;28;20445;-80
2021/01/02 04:10:13;;;;;;;31.53;18.27;;;;;;;0.57;100.00;95591.19;5079626;28;20787;-80
2021/01/02 04:12:39;;;;;;;31.27;17.63;;;;;;;0.54;100.00;95594.81;5079332;28;20982;-80
2021/01/02 04:15:08;;;;;;;30.00;18.50;;;;;;;0.50;100.00;95597.03;5078984;28;20482;-78
2021/01/02 04:17:35;;;;;;;36.03;19.33;;;;;;;0.39;100.00;95589.13;5078071;28;20445;-78
2021/01/02 04:20:04;;;;;;;33.90;17.97;;;;;;;0.50;100.00;95591.75;5076879;28;20485;-78
2021/01/02 04:22:32;;;;;;;33.20;18.63;;;;;;;0.41;100.00;95589.34;5076838;28;20973;-78
2021/01/02 04:24:59;;;;;;;32.90;19.63;;;;;;;0.42;100.00;95586.22;5076854;28;20468;-78
2021/01/02 04:27:25;;;;;;;38.40;20.97;;;;;;;0.39;100.00;95595.16;5076725;28;20463;-78
2021/01/02 04:29:52;;;;;;;32.20;17.67;;;;;;;0.28;100.00;95597.16;5075166;28;20907;-78
2021/01/02 04:32:19;;;;;;;47.10;24.10;;;;;;;0.25;100.00;95603.44;5078029;28;20481;-82
2021/01/02 04:34:45;;;;;;;41.57;22.30;;;;;;;0.32;100.00;95605.56;5078970;28;20445;-82
2021/01/02 04:37:12;;;;;;;41.77;23.00;;;;;;;0.37;100.00;95604.81;5079071;28;20923;-82
2021/01/02 04:39:38;;;;;;;37.27;20.77;;;;;;;0.44;100.00;95602.34;5079278;28;20484;-82
2021/01/02 04:42:05;;;;;;;43.40;19.63;;;;;;;0.42;100.00;95602.13;5079055;28;20477;-80
2021/01/02 04:44:32;;;;;;;40.97;21.83;;;;;;;0.41;100.00;95610.56;5077823;28;20474;-78
2021/01/02 04:47:01;;;;;;;40.00;21.47;;;;;;;0.43;100.00;95614.19;5078334;28;20445;-80
2021/01/02 04:49:28;;;;;;;40.60;22.00;;;;;;;0.47;100.00;95613.94;5078416;28;20437;-80
2021/01/02 04:52:00;;;;;;;42.50;23.23;;;;;;;0.43;100.00;95606.25;5078566;28;20488;-80
2021/01/02 04:54:26;;;;;;;40.43;23.13;;;;;;;0.38;100.00;95609.63;5079836;28;20508;-79
2021/01/02 04:56:53;;;;;;;40.87;23.53;;;;;;;0.42;100.00;95615.41;5075685;28;20440;-79
2021/01/02 04:59:25;;;;;;;49.33;24.43;;;;;;;0.29;100.00;95609.91;5075261;28;20488;-79
2021/01/02 05:01:53;;;;;;;49.87;24.50;;;;;;;0.21;100.00;95600.31;5075361;28;20480;-79
2021/01/02 05:04:19;;;;;;;47.93;25.30;;;;;;;0.22;100.00;95612.38;5077785;28;20559;-80
2021/01/02 05:06:46;;;;;;;55.10;28.07;;;;;;;0.44;100.00;95609.59;5079197;28;20457;-79
2021/01/02 05:09:13;;;;;;;50.60;25.40;;;;;;;0.35;100.00;95609.88;5078008;28;20437;-82
2021/01/02 05:11:40;;;;;;;50.30;25.63;;;;;;;0.30;100.00;95613.31;5077688;28;20900;-79
2021/01/02 05:14:07;;;;;;;77.40;29.13;;;;;;;0.30;100.00;95611.38;5075384;28;20446;-79
2021/01/02 05:16:36;;;;;;;55.60;26.60;;;;;;;0.37;100.00;95618.09;5075555;28;20446;-79
2021/01/02 05:19:05;;;;;;;68.00;30.17;;;;;;;0.42;100.00;95622.63;5078088;28;20495;-80
2021/01/02 05:21:32;;;;;;;130.13;34.33;;;;;;;0.33;100.00;95625.59;5078872;28;20465;-82
2021/01/02 05:24:08;;;;;;;177.80;36.77;;;;;;;0.34;100.00;95624.38;5079289;28;20464;-82
2021/01/02 05:26:37;;;;;;;427.43;54.57;;;;;;;0.39;100.00;95623.63;5077246;28;20430;-79
2021/01/02 05:29:15;;;;;;;167.77;33.90;;;;;;;0.26;100.00;95618.84;5076054;28;20450;-79
2021/01/02 05:31:42;;;;;;;286.67;41.47;;;;;;;0.24;100.00;95615.97;5077668;28;20461;-82
2021/01/02 05:34:11;;;;;;;268.27;44.73;;;;;;;0.26;100.00;95618.13;5078175;28;20446;-82
2021/01/02 05:36:37;;;;;;;428.53;55.17;;;;;;;0.17;100.00;95613.13;5078504;28;20438;-82
2021/01/02 05:39:04;;;;;;;211.37;41.90;;;;;;;0.20;100.00;95615.50;5077816;28;20489;-79
2021/01/02 05:41:50;;;;;;;313.97;46.80;;;;;;;0.14;100.00;95619.41;5077935;28;20988;-79
2021/01/02 05:44:17;;;;;;;423.70;51.23;;;;;;;0.19;100.00;95621.31;5076963;28;20425;-79
2021/01/02 05:46:49;;;;;;;660.73;64.57;;;;;;;0.08;100.00;95627.38;5074884;28;20942;-79
2021/01/02 05:49:46;;;;;;;322.00;44.67;;;;;;;0.10;100.00;95624.22;5078623;28;20825;-82
2021/01/02 05:52:13;;;;;;;327.60;48.23;;;;;;;0.33;100.00;95628.97;5044237;28;20472;-79
2021/01/02 05:54:49;;;;;;;125.97;29.93;;;;;;;0.32;100.00;95621.47;5075909;28;20445;-79
2021/01/02 05:57:25;;;;;;;407.60;51.00;;;;;;;0.38;100.00;95630.84;5076261;28;20436;-78
2021/01/02 05:59:53;;;;;;;554.87;56.90;;;;;;;0.18;100.00;95625.16;5075373;28;20464;-79
2021/01/02 06:02:21;;;;;;;514.83;58.83;;;;;;;0.19;100.00;95623.97;5077122;28;20453;-83
2021/01/02 06:04:56;;;;;;;319.67;40.40;;;;;;;0.11;100.00;95625.69;5076206;28;20444;-82
2021/01/02 06:07:22;;;;;;;522.20;59.03;;;;;;;-0.01;100.00;95622.34;5076704;28;20441;-80
2021/01/02 06:09:50;;;;;;;555.80;62.43;;;;;;;-0.04;100.00;95621.41;5076383;28;20442;-81
2021/01/02 06:12:25;;;;;;;390.00;47.70;;;;;;;0.11;100.00;95618.44;5077178;28;20463;-81
2021/01/02 06:14:53;;;;;;;288.80;39.50;;;;;;;-0.01;100.00;95617.78;5078785;28;20474;-80
2021/01/02 06:17:26;;;;;;;561.27;62.37;;;;;;;0.02;100.00;95616.06;5089913;28;20430;-81
2021/01/02 06:19:53;;;;;;;146.10;27.57;;;;;;;-0.01;100.00;95617.78;5098565;28;20461;-84
2021/01/02 06:22:19;;;;;;;143.40;26.13;;;;;;;0.17;100.00;95618.41;5098376;28;20449;-79
2021/01/02 06:24:49;;;;;;;575.03;68.50;;;;;;;0.02;100.00;95618.72;5098565;28;20417;-82
2021/01/02 06:27:16;;;;;;;338.37;48.47;;;;;;;-0.07;100.00;95619.00;5097114;28;20402;-79
2021/01/02 06:29:47;;;;;;;119.77;27.67;;;;;;;0.11;100.00;95629.06;5074272;28;20469;-80
2021/01/02 06:32:14;;;;;;;228.67;35.50;;;;;;;0.09;100.00;95625.44;5075146;28;20469;-80
2021/01/02 06:34:41;;;;;;;222.33;34.70;;;;;;;0.12;100.00;95630.50;5075234;28;20520;-83
2021/01/02 06:37:07;;;;;;;497.33;58.70;;;;;;;0.14;100.00;95628.06;5075687;28;20534;-82
2021/01/02 06:39:34;;;;;;;319.20;45.53;;;;;;;0.16;100.00;95625.66;5075518;28;20480;-83
2021/01/02 06:42:20;;;;;;;166.97;31.10;;;;;;;0.17;100.00;95621.78;5075646;28;20551;-80
2021/01/02 06:44:48;;;;;;;377.73;50.80;;;;;;;0.15;100.00;95623.50;5075452;28;20453;-82
2021/01/02 06:47:16;;;;;;;250.43;38.87;;;;;;;0.05;100.00;95612.44;5077091;28;20446;-81
2021/01/02 06:49:43;;;;;;;424.27;48.63;;;;;;;0.10;100.00;95613.63;5076803;28;20433;-79
2021/01/02 06:52:10;;;;;;;246.67;36.73;;;;;;;0.28;100.00;95610.44;5075638;28;20469;-79
2021/01/02 06:54:39;;;;;;;91.33;25.47;;;;;;;0.28;100.00;95624.38;5079270;28;20518;-79
2021/01/02 06:57:06;;;;;;;250.77;36.97;;;;;;;0.26;100.00;95618.13;5080341;28;20857;-81
2021/01/02 06:59:33;;;;;;;593.93;65.23;;;;;;;0.24;100.00;95631.16;5079469;28;20488;-80
2021/01/02 07:02:00;;;;;;;54.80;20.37;;;;;;;0.22;100.00;95630.94;5080036;28;20579;-80
2021/01/02 07:04:37;;;;;;;538.07;57.97;;;;;;;0.16;100.00;95636.25;5080116;28;20444;-80
2021/01/02 07:07:05;;;;;;;447.73;49.63;;;;;;;-0.01;100.00;95646.94;5080233;28;20440;-79
2021/01/02 07:09:31;;;;;;;119.07;26.57;;;;;;;0.17;100.00;95645.66;5077985;28;20499;-78
2021/01/02 07:12:15;;;;;;;262.43;38.70;;;;;;;0.22;100.00;95647.56;5083650;28;20541;-78
2021/01/02 07:14:43;;;;;;;349.87;42.57;;;;;;;0.18;100.00;95652.41;5099863;28;20413;-78
2021/01/02 07:17:12;;;;;;;74.13;22.00;;;;;;;0.24;100.00;95657.69;5094023;28;20457;-78
2021/01/02 07:19:46;;;;;;;219.57;34.30;;;;;;;0.19;100.00;95655.78;5079518;28;20485;-78
2021/01/02 07:22:27;;;;;;;49.57;19.23;;;;;;;0.40;100.00;95651.59;5079692;28;20465;-78
2021/01/02 07:25:00;;;;;;;83.33;22.97;;;;;;;0.37;100.00;95647.28;5078182;28;20482;-82
2021/01/02 07:27:30;;;;;;;88.43;23.57;;;;;;;0.23;100.00;95650.94;5079287;28;20487;-82
2021/01/02 07:29:58;;;;;;;33.57;16.03;;;;;;;0.15;100.00;95647.38;5078173;28;20456;-79
2021/01/02 07:32:27;;;;;;;53.53;20.13;;;;;;;-0.09;100.00;95653.94;5078750;28;20476;-80
2021/01/02 07:34:55;;;;;;;43.03;19.50;;;;;;;0.02;100.00;95647.16;5083702;28;20451;-80
2021/01/02 07:37:23;;;;;;;72.60;23.97;;;;;;;-0.01;100.00;95646.94;5082330;28;20451;-80
2021/01/02 07:39:58;;;;;;;53.73;19.63;;;;;;;-0.01;100.00;95649.59;5080705;28;20576;-78
2021/01/02 07:42:25;;;;;;;117.90;27.17;;;;;;;-0.06;100.00;95645.00;5078097;28;20468;-78
2021/01/02 07:44:57;;;;;;;82.53;23.80;;;;;;;0.04;100.00;95645.47;5079925;28;20441;-80
2021/01/02 07:47:24;;;;;;;82.93;24.13;;;;;;;0.00;100.00;95647.66;5080218;28;20441;-80
2021/01/02 07:50:02;;;;;;;86.97;22.40;;;;;;;0.12;100.00;95643.03;5084449;28;20437;-80
2021/01/02 07:52:29;;;;;;;129.73;25.07;;;;;;;0.06;100.00;95645.00;5100819;28;20459;-80
2021/01/02 07:54:55;;;;;;;87.80;22.30;;;;;;;0.27;100.00;95654.78;5101478;28;20461;-80
2021/01/02 07:57:25;;;;;;;80.33;23.90;;;;;;;0.35;100.00;95653.06;5105973;28;20448;-80
2021/01/02 07:59:52;;;;;;;145.67;29.80;;;;;;;0.25;100.00;95657.19;5121302;28;20468;-82
2021/01/02 08:02:24;;;;;;;52.90;22.50;;;;;;;0.42;100.00;95657.84;5104965;28;20520;-80
2021/01/02 08:04:53;;;;;;;175.27;28.30;;;;;;;0.25;100.00;95665.16;5100142;28;20448;-79
2021/01/02 08:07:20;;;;;;;71.80;23.90;;;;;;;0.11;100.00;95658.22;5101507;28;20445;-79
2021/01/02 08:09:48;;;;;;;54.87;20.07;;;;;;;0.11;100.00;95655.56;5099907;28;20536;-81
2021/01/02 08:12:16;;;;;;;94.00;24.03;;;;;;;0.11;100.00;95652.19;5097618;28;20536;-80
2021/01/02 08:14:44;;;;;;;48.07;20.27;;;;;;;0.13;100.00;95647.84;5098590;28;20448;-80
2021/01/02 08:17:12;;;;;;;44.17;19.97;;;;;;;0.10;100.00;95659.41;5100661;28;20847;-79
2021/01/02 08:19:42;;;;;;;39.20;19.87;;;;;;;0.14;100.00;95654.59;5100853;28;20934;-79
2021/01/02 08:22:09;;;;;;;41.50;18.73;;;;;;;0.35;100.00;95654.97;5098968;28;20492;-79
2021/01/02 08:24:37;;;;;;;35.00;18.87;;;;;;;0.44;100.00;95639.50;5100681;28;20448;-82
2021/01/02 08:27:05;;;;;;;43.30;20.90;;;;;;;0.38;100.00;95648.69;5102089;28;20444;-82
2021/01/02 08:29:33;;;;;;;46.80;20.80;;;;;;;0.22;100.00;95652.16;5101670;28;20468;-81
2021/01/02 08:32:05;;;;;;;41.30;19.40;;;;;;;0.27;100.00;95654.78;5100474;28;20465;-79
2021/01/02 08:34:34;;;;;;;48.50;20.57;;;;;;;0.35;100.00;95644.38;5098033;28;20498;-79
2021/01/02 08:37:09;;;;;;;35.97;19.77;;;;;;;0.21;100.00;95650.72;5098725;28;20441;-80
2021/01/02 08:39:37;;;;;;;54.37;20.40;;;;;;;0.25;100.00;95637.94;5099433;28;20524;-79
2021/01/02 08:42:05;;;;;;;45.10;22.53;;;;;;;0.28;100.00;95645.59;5100715;28;20806;-81
2021/01/02 08:44:35;;;;;;;48.70;22.27;;;;;;;0.26;100.00;95645.38;5100213;28;20543;-80
2021/01/02 08:47:03;;;;;;;42.90;19.30;;;;;;;0.36;100.00;95646.53;5100501;28;20433;-79
2021/01/02 08:49:34;;;;;;;42.33;20.30;;;;;;;0.36;100.00;95646.53;5098644;28;20444;-78
2021/01/02 08:52:21;;;;;;;44.97;21.33;;;;;;;0.33;100.00;95650.19;5097615;28;20464;-78
2021/01/02 08:54:50;;;;;;;46.37;21.23;;;;;;;0.45;100.00;95656.88;5097746;28;20427;-78
2021/01/02 08:57:33;;;;;;;60.63;29.57;;;;;;;0.33;100.00;95650.19;5098685;28;20428;-78
2021/01/02 09:00:16;;;;;;;50.57;24.80;;;;;;;0.33;100.00;95652.09;5098645;28;20484;-79
2021/01/02 09:02:44;;;;;;;45.40;21.90;;;;;;;0.31;100.00;95651.88;5098041;28;20453;-80
2021/01/02 09:05:13;;;;;;;38.77;19.90;;;;;;;0.32;100.00;95653.31;5098070;28;20442;-80
2021/01/02 09:07:53;;;;;;;42.43;21.60;;;;;;;0.22;100.00;95652.88;5097775;28;20460;-81
2021/01/02 09:10:28;;;;;;;38.03;20.60;;;;;;;0.29;100.00;95656.94;5097886;28;20478;-80
2021/01/02 09:13:09;;;;;;;51.60;23.07;;;;;;;0.37;100.00;95657.88;5098187;28;20452;-79
2021/01/02 09:15:50;;;;;;;42.23;21.07;;;;;;;0.40;100.00;95662.22;5097112;28;20437;-79
2021/01/02 09:18:18;;;;;;;41.20;20.97;;;;;;;0.50;100.00;95666.03;5100384;28;21003;-81
2021/01/02 09:20:45;;;;;;;39.83;20.90;;;;;;;0.61;100.00;95662.59;5099203;28;20448;-81
2021/01/02 09:23:12;;;;;;;41.57;19.27;;;;;;;0.44;100.00;95660.72;5099724;28;20476;-81
2021/01/02 09:25:40;;;;;;;38.40;17.87;;;;;;;0.43;100.00;95661.97;5099546;28;20440;-82
2021/01/02 09:28:14;;;;;;;47.73;21.33;;;;;;;0.50;100.00;95658.78;5098199;28;20443;-78
2021/01/02 09:30:41;;;;;;;38.93;17.67;;;;;;;0.58;100.00;95660.91;5096760;28;20427;-79
2021/01/02 09:33:07;;;;;;;36.83;18.80;;;;;;;0.49;100.00;95657.34;5097073;28;20890;-79
2021/01/02 09:35:35;;;;;;;39.40;20.37;;;;;;;0.64;100.00;95667.63;5100437;28;20445;-83
2021/01/02 09:38:02;;;;;;;43.47;21.97;;;;;;;0.54;100.00;95672.50;5099862;28;20429;-83
2021/01/02 09:40:30;;;;;;;43.93;22.30;;;;;;;0.59;100.00;95676.34;5100421;28;20555;-80
2021/01/02 09:42:57;;;;;;;40.53;20.77;;;;;;;0.59;100.00;95668.41;5101608;28;20465;-82
2021/01/02 09:45:23;;;;;;;41.77;21.47;;;;;;;0.54;100.00;95671.78;5094087;28;21006;-82
2021/01/02 09:47:49;;;;;;;43.43;20.40;;;;;;;0.53;100.00;95679.03;5077361;28;20444;-79
2021/01/02 09:50:16;;;;;;;44.37;20.57;;;;;;;0.36;100.00;95683.69;5081099;28;20934;-79
2021/01/02 09:52:42;;;;;;;36.70;18.67;;;;;;;0.33;100.00;95684.66;5098802;28;20872;-80
2021/01/02 09:55:10;;;;;;;44.23;20.90;;;;;;;0.38;100.00;95688.50;5098561;28;20500;-80
2021/01/02 09:57:37;;;;;;;36.27;19.13;;;;;;;0.49;100.00;95688.47;5098463;28;20492;-80
2021/01/02 10:00:05;;;;;;;38.90;20.80;;;;;;;0.41;100.00;95695.47;5098214;28;20468;-81
2021/01/02 10:02:31;;;;;;;43.17;20.80;;;;;;;0.44;100.00;95692.56;5079104;28;20458;-79
2021/01/02 10:04:58;;;;;;;42.20;21.30;;;;;;;0.38;100.00;95693.81;5076792;28;21009;-79
2021/01/02 10:07:24;;;;;;;44.03;21.40;;;;;;;0.55;100.00;95691.81;5076660;28;20495;-79
2021/01/02 10:09:51;;;;;;;39.03;19.23;;;;;;;0.56;100.00;95692.53;5075401;28;20437;-78
2021/01/02 10:12:19;;;;;;;42.03;22.10;;;;;;;0.59;100.00;95689.63;5075523;28;20540;-80
2021/01/02 10:14:47;;;;;;;48.27;24.10;;;;;;;0.65;100.00;95685.00;5077748;28;20879;-79
2021/01/02 10:17:15;;;;;;;40.40;21.90;;;;;;;0.65;100.00;95682.34;5077525;28;20449;-80
2021/01/02 10:19:43;;;;;;;41.30;21.27;;;;;;;0.71;100.00;95682.31;5077242;28;20481;-80
2021/01/02 10:22:10;;;;;;;38.17;20.27;;;;;;;0.67;100.00;95682.56;5077560;28;20462;-79
2021/01/02 10:24:36;;;;;;;34.03;18.97;;;;;;;0.73;100.00;95677.25;5076172;28;20792;-79
2021/01/02 10:27:03;;;;;;;44.90;20.20;;;;;;;0.81;100.00;95675.53;5076009;28;20530;-80
2021/01/02 10:29:30;;;;;;;38.00;19.23;;;;;;;0.85;100.00;95675.97;5078407;28;20534;-79
2021/01/02 10:32:02;;;;;;;43.03;20.67;;;;;;;0.80;100.00;95660.78;5083411;28;20465;-79
2021/01/02 10:34:28;;;;;;;33.80;16.23;;;;;;;0.91;100.00;95652.75;5083283;28;20475;-79
2021/01/02 10:36:55;;;;;;;35.17;18.80;;;;;;;0.89;100.00;95647.22;5085057;28;20453;-84
2021/01/02 10:39:21;;;;;;;32.83;18.03;;;;;;;0.97;100.00;95638.22;5085010;28;20481;-80
2021/01/02 10:41:49;;;;;;;31.23;16.27;;;;;;;0.87;100.00;95642.41;5084233;28;20469;-81
2021/01/02 10:44:17;;;;;;;32.87;16.80;;;;;;;0.88;100.00;95648.41;5086577;28;20449;-81
2021/01/02 10:46:44;;;;;;;29.70;15.20;;;;;;;1.03;100.00;95652.19;5085061;28;20803;-81
2021/01/02 10:49:13;;;;;;;36.67;19.20;;;;;;;0.96;100.00;95642.09;5084644;28;20460;-81
2021/01/02 10:51:40;;;;;;;34.20;18.50;;;;;;;0.92;100.00;95638.25;5084563;28;20972;-83
2021/01/02 10:54:06;;;;;;;32.63;17.80;;;;;;;0.95;100.00;95635.34;5079962;28;20504;-79
2021/01/02 10:56:33;;;;;;;32.40;18.93;;;;;;;1.08;100.00;95635.50;5082788;28;20438;-79
2021/01/02 10:58:59;;;;;;;37.93;19.17;;;;;;;1.41;100.00;95626.53;5083639;28;20768;-81
2021/01/02 11:01:26;;;;;;;33.93;18.80;;;;;;;1.27;100.00;95626.91;5083197;28;20468;-82
2021/01/02 11:03:53;;;;;;;32.40;17.53;;;;;;;1.19;100.00;95628.66;5083670;28;20433;-82
2021/01/02 11:06:20;;;;;;;33.47;17.03;;;;;;;1.20;100.00;95628.16;5084825;28;20483;-81
2021/01/02 11:08:47;;;;;;;39.27;17.27;;;;;;;1.11;100.00;95617.13;5083818;28;20469;-81
2021/01/02 11:11:20;;;;;;;33.20;18.20;;;;;;;1.17;100.00;95613.22;5083657;28;20929;-80
2021/01/02 11:13:47;;;;;;;38.87;19.83;;;;;;;0.90;100.00;95603.53;5083083;28;20926;-80
2021/01/02 11:16:13;;;;;;;29.87;16.40;;;;;;;1.05;100.00;95601.97;5082606;28;20449;-80
2021/01/02 11:18:39;;;;;;;30.00;16.13;;;;;;;1.19;100.00;95599.44;5082844;28;20498;-79
2021/01/02 11:21:10;;;;;;;31.80;17.87;;;;;;;1.07;100.00;95580.94;5081549;28;20528;-81
2021/01/02 11:23:38;;;;;;;31.47;18.10;;;;;;;0.96;100.00;95581.03;5083138;28;20433;-81
2021/01/02 11:26:08;;;;;;;31.83;17.40;;;;;;;1.15;100.00;95575.09;5083368;28;20516;-81
2021/01/02 11:28:35;;;;;;;31.27;17.33;;;;;;;1.08;100.00;95581.66;5084829;28;20455;-79
2021/01/02 11:31:01;;;;;;;35.20;19.07;;;;;;;1.11;100.00;95579.94;5079334;28;20436;-78